Time;durP1;ratioP1;P1;durP2;ratioP2;P2;SDS_P1;SDS_P2;PMS_P1;PMS_P2;Temp;Humidity;BMP_temperature;BMP_pressure;BME280_temperature;BME280_humidity;BME280_pressure;Samples;Min_cycle;Max_cycle;Signal;HPM_P1;HPM_P2
2022/06/17 00:00:48;;;;;;;2.30;1.90;;;;;;;18.58;49.36;101119.75;4964861;28;20460;-76
2022/06/17 00:03:14;;;;;;;2.05;1.70;;;;;;;18.60;49.38;101144.69;4967595;28;20139;-76
2022/06/17 00:05:41;;;;;;;3.03;1.77;;;;;;;18.44;49.73;101122.53;4954349;28;20086;-76
2022/06/17 00:08:15;;;;;;;1.98;1.77;;;;;;;18.58;49.77;101143.91;4948118;28;20526;-76
2022/06/17 00:10:41;;;;;;;4.90;2.08;;;;;;;18.45;49.91;101125.13;4953951;28;20583;-76
2022/06/17 00:13:16;;;;;;;3.28;1.90;;;;;;;18.38;49.74;101118.47;4960405;28;20051;-77
2022/06/17 00:15:45;;;;;;;1.98;1.77;;;;;;;18.55;50.01;101131.59;4968452;28;20062;-76
2022/06/17 00:18:14;;;;;;;2.20;1.52;;;;;;;18.52;50.06;101126.44;4965955;28;20408;-77
2022/06/17 00:20:41;;;;;;;2.85;2.00;;;;;;;18.49;50.20;101121.25;4968610;28;20055;-75
2022/06/17 00:23:13;;;;;;;4.00;2.10;;;;;;;18.51;50.13;101122.03;4960806;28;20059;-76
2022/06/17 00:25:42;;;;;;;3.35;1.98;;;;;;;18.49;49.83;101115.03;4948527;28;20110;-77
2022/06/17 00:28:11;;;;;;;3.00;1.77;;;;;;;18.38;49.97;101097.00;4945787;28;20078;-76
2022/06/17 00:30:39;;;;;;;3.37;1.70;;;;;;;18.36;50.01;101090.03;4950784;28;20043;-75
2022/06/17 00:33:06;;;;;;;2.50;1.63;;;;;;;18.44;50.28;101112.66;4945292;28;20130;-75
2022/06/17 00:35:35;;;;;;;3.08;1.90;;;;;;;18.23;50.43;101081.97;4946389;28;20064;-76
2022/06/17 00:38:03;;;;;;;2.13;1.77;;;;;;;18.25;50.32;101096.13;4947518;28;20490;-75
2022/06/17 00:40:32;;;;;;;2.47;1.70;;;;;;;18.28;50.66;101108.44;4946384;28;20445;-75
2022/06/17 00:43:06;;;;;;;2.23;1.63;;;;;;;18.10;51.01;101087.28;4944743;28;20134;-75
2022/06/17 00:45:39;;;;;;;2.85;1.70;;;;;;;18.06;51.06;101076.88;4952435;28;20067;-75
2022/06/17 00:48:16;;;;;;;3.65;1.98;;;;;;;18.26;51.01;101092.47;4947230;28;20059;-75
2022/06/17 00:50:48;;;;;;;2.50;1.73;;;;;;;18.29;50.93;101105.66;4972183;28;20046;-76
2022/06/17 00:53:23;;;;;;;4.15;2.05;;;;;;;18.30;51.07;101117.25;4963434;28;20055;-75
2022/06/17 00:55:54;;;;;;;2.08;1.65;;;;;;;18.26;50.95;101113.91;4954479;28;20051;-75
2022/06/17 00:58:29;;;;;;;3.25;2.40;;;;;;;18.16;51.10;101102.09;4944686;28;20051;-76
2022/06/17 01:00:59;;;;;;;3.15;2.00;;;;;;;18.14;51.02;101109.38;4945673;28;20099;-76
2022/06/17 01:03:33;;;;;;;3.03;1.80;;;;;;;18.17;51.23;101125.25;4944265;28;20101;-75
2022/06/17 01:06:15;;;;;;;4.15;2.10;;;;;;;18.08;51.71;101131.25;4945213;28;20047;-75
2022/06/17 01:11:40;;;;;;;3.40;1.83;;;;;;;17.94;51.32;101139.34;4951447;28;20476;-76
2022/06/17 01:14:10;;;;;;;3.35;2.13;;;;;;;17.79;51.72;101120.59;4942495;28;20110;-75
2022/06/17 01:16:40;;;;;;;2.17;1.98;;;;;;;17.72;51.82;101113.94;4950028;28;20054;-76
2022/06/17 01:19:24;;;;;;;5.88;2.05;;;;;;;17.80;52.16;101145.59;4963281;28;20047;-76
2022/06/17 01:22:00;;;;;;;2.95;1.90;;;;;;;17.61;52.31;101116.44;4959072;28;20129;-75
2022/06/17 01:24:27;;;;;;;2.13;1.80;;;;;;;17.63;52.69;101122.53;4958852;28;20388;-76
2022/06/17 01:26:55;;;;;;;4.20;1.85;;;;;;;17.67;52.92;101142.84;4945168;28;20055;-78
2022/06/17 01:29:21;;;;;;;1.98;1.80;;;;;;;17.60;53.05;101136.16;4948086;28;20078;-75
2022/06/17 01:31:52;;;;;;;2.85;2.13;;;;;;;17.52;53.36;101131.28;4942976;28;20265;-75
2022/06/17 01:34:19;;;;;;;;;;;;;;;17.47;53.63;101143.25;4949419;28;20234;-75
2022/06/17 01:36:46;;;;;;;2.47;1.75;;;;;;;17.23;53.93;101107.31;4946426;28;20032;-76
2022/06/17 01:39:14;;;;;;;2.47;2.05;;;;;;;17.34;54.13;101142.28;4948740;28;20134;-75
2022/06/17 01:41:44;;;;;;;4.30;1.90;;;;;;;17.25;54.48;101137.53;4940279;28;20060;-77
2022/06/17 01:44:20;;;;;;;4.70;2.00;;;;;;;17.12;54.36;101121.38;4949743;28;20078;-74
2022/06/17 01:46:52;;;;;;;2.15;1.95;;;;;;;17.17;54.73;101144.22;4962952;28;20458;-74
2022/06/17 01:49:27;;;;;;;5.65;1.92;;;;;;;17.02;55.16;101118.41;4970931;28;20105;-75
2022/06/17 01:51:59;;;;;;;5.53;2.33;;;;;;;17.05;55.14;101125.38;4950794;28;20090;-76
2022/06/17 01:54:34;;;;;;;3.05;2.20;;;;;;;16.94;55.27;101123.38;4945084;28;20066;-76
2022/06/17 01:57:03;;;;;;;5.63;2.08;;;;;;;17.01;55.31;101131.88;4945412;28;20082;-76
2022/06/17 01:59:36;;;;;;;2.73;1.90;;;;;;;16.96;55.32;101121.47;4946858;28;20106;-76
2022/06/17 02:02:04;;;;;;;2.75;2.10;;;;;;;17.06;55.44;101140.47;4948707;28;20132;-75
2022/06/17 02:04:35;;;;;;;2.67;1.95;;;;;;;17.03;55.63;101144.22;4943070;28;20075;-76
2022/06/17 02:07:24;;;;;;;5.38;2.20;;;;;;;16.92;55.54;101125.28;4945683;28;20051;-75
2022/06/17 02:09:51;;;;;;;4.88;2.13;;;;;;;17.06;55.36;101140.47;4943208;28;20047;-76
2022/06/17 02:12:20;;;;;;;3.90;2.40;;;;;;;17.00;55.74;101140.88;4942557;28;20193;-75
2022/06/17 02:14:48;;;;;;;5.13;2.03;;;;;;;16.94;55.98;101135.91;4944638;28;20138;-75
2022/06/17 02:17:15;;;;;;;3.65;2.25;;;;;;;16.94;55.87;101146.59;4948759;28;20779;-75
2022/06/17 02:19:45;;;;;;;3.28;2.30;;;;;;;16.88;56.30;101146.97;4948283;28;20472;-76
2022/06/17 02:22:20;;;;;;;2.80;2.45;;;;;;;16.75;55.91;101134.34;4948371;28;20071;-75
2022/06/17 02:24:50;;;;;;;3.42;2.30;;;;;;;16.72;56.59;101137.19;4965187;28;20109;-75
2022/06/17 02:27:19;;;;;;;5.50;2.45;;;;;;;16.66;57.18;101123.34;4970026;28;20109;-75
2022/06/17 02:29:47;;;;;;;2.88;2.00;;;;;;;16.63;56.85;101110.16;4967533;28;20126;-76
2022/06/17 02:32:14;;;;;;;5.20;2.38;;;;;;;16.72;57.09;101133.66;4966502;28;20161;-76
2022/06/17 02:35:29;;;;;;;2.97;2.38;;;;;;;16.60;57.32;101129.91;4947418;28;20047;-75
2022/06/17 02:37:55;;;;;;;4.43;2.78;;;;;;;16.49;57.80;101127.00;4948110;28;20058;-75
2022/06/17 02:40:40;;;;;;;5.18;2.40;;;;;;;16.42;58.33;101134.53;4947631;28;20070;-75
2022/06/17 02:43:12;;;;;;;3.53;2.30;;;;;;;16.47;58.20;101148.50;4954159;28;20502;-75
2022/06/17 02:45:50;;;;;;;5.82;2.75;;;;;;;16.42;57.95;101137.19;4967609;28;20047;-76
2022/06/17 02:48:27;;;;;;;4.57;2.50;;;;;;;16.24;58.71;101118.72;4967886;28;20118;-75
2022/06/17 02:50:57;;;;;;;4.82;2.40;;;;;;;16.22;58.94;101117.94;4968706;28;20432;-75
2022/06/17 02:53:36;;;;;;;4.25;2.60;;;;;;;16.30;59.25;101135.25;4965050;28;20047;-77
2022/06/17 02:56:07;;;;;;;2.63;2.42;;;;;;;16.28;59.42;101136.28;4968707;28;20047;-75
2022/06/17 02:58:55;;;;;;;3.95;2.25;;;;;;;16.23;59.49;101152.59;4968147;28;20093;-75
2022/06/17 03:01:27;;;;;;;3.80;2.50;;;;;;;16.22;59.97;101152.69;4967832;28;20134;-74
2022/06/17 03:03:55;;;;;;;4.65;2.70;;;;;;;16.16;59.87;101137.88;4938673;28;20134;-75
2022/06/17 03:06:30;;;;;;;2.63;2.40;;;;;;;16.06;60.16;101128.66;4948674;28;20128;-75
2022/06/17 03:09:00;;;;;;;4.03;2.75;;;;;;;16.10;60.37;101135.56;4944453;28;20064;-76
2022/06/17 03:11:27;;;;;;;3.00;2.55;;;;;;;16.01;60.24;101122.75;4948280;28;20393;-75
2022/06/17 03:14:00;;;;;;;5.88;2.90;;;;;;;16.00;60.60;101131.72;4947986;28;20054;-75
2022/06/17 03:16:27;;;;;;;4.05;2.67;;;;;;;15.94;60.76;101140.06;4945713;28;20047;-75
2022/06/17 03:18:56;;;;;;;3.63;2.78;;;;;;;15.75;60.97;101117.06;4952231;28;20062;-75
2022/06/17 03:21:24;;;;;;;3.33;2.63;;;;;;;15.98;61.14;101141.63;4946961;28;20330;-74
2022/06/17 03:24:20;;;;;;;4.18;2.78;;;;;;;15.93;60.50;101119.63;4946257;28;20142;-75
2022/06/17 03:26:57;;;;;;;4.40;2.90;;;;;;;16.00;60.37;101137.06;4947592;28;20047;-75
2022/06/17 03:29:26;;;;;;;5.93;2.60;;;;;;;16.07;61.00;101147.28;4947935;28;20126;-76
2022/06/17 03:32:01;;;;;;;2.83;2.55;;;;;;;16.11;60.70;101148.81;4947045;28;20179;-75
2022/06/17 03:34:37;;;;;;;7.10;2.70;;;;;;;16.01;60.72;101139.63;4947178;28;20060;-75
2022/06/17 03:37:17;;;;;;;5.25;2.80;;;;;;;16.04;60.96;101154.63;4944224;28;20078;-76
2022/06/17 03:39:51;;;;;;;2.88;2.67;;;;;;;16.03;60.90;101161.78;4944234;28;20465;-75
2022/06/17 03:42:30;;;;;;;4.28;2.83;;;;;;;15.89;61.25;101144.81;4944152;28;20131;-75
2022/06/17 03:45:12;;;;;;;4.03;3.30;;;;;;;16.01;60.92;101165.50;4948023;28;20051;-76
2022/06/17 03:48:00;;;;;;;4.13;2.85;;;;;;;16.01;61.09;101177.03;4947329;28;20296;-75
2022/06/17 03:50:31;;;;;;;4.55;2.78;;;;;;;15.97;61.07;101166.59;4948482;28;20134;-75
2022/06/17 03:53:03;;;;;;;4.85;3.15;;;;;;;15.83;61.13;101156.72;4945434;28;20150;-75
2022/06/17 03:55:30;;;;;;;3.70;2.72;;;;;;;15.88;61.57;101168.00;4946434;28;20094;-75
2022/06/17 03:58:01;;;;;;;5.35;2.70;;;;;;;15.87;61.37;101170.75;4959411;28;20113;-75
2022/06/17 04:00:51;;;;;;;5.07;2.95;;;;;;;15.90;61.98;101192.78;4944786;28;20129;-75
2022/06/17 04:03:22;;;;;;;3.17;2.80;;;;;;;15.80;61.89;101178.25;4944375;28;20394;-74
2022/06/17 04:05:57;;;;;;;4.75;2.95;;;;;;;15.88;62.11;101210.75;4948219;28;20051;-75
2022/06/17 04:08:23;;;;;;;6.63;2.90;;;;;;;15.85;61.67;101186.88;4957866;28;20070;-75
2022/06/17 04:10:50;;;;;;;4.75;3.30;;;;;;;15.93;61.94;101199.78;4946779;28;20051;-75
2022/06/17 04:13:23;;;;;;;2.75;2.55;;;;;;;16.05;61.83;101209.78;4946654;28;20079;-74
2022/06/17 04:15:57;;;;;;;3.97;2.83;;;;;;;15.99;61.20;101200.31;4947695;28;20142;-75
2022/06/17 04:18:24;;;;;;;4.40;2.95;;;;;;;15.96;61.21;101211.16;4947848;28;20051;-77
2022/06/17 04:20:55;;;;;;;3.95;3.08;;;;;;;15.89;61.73;101199.09;4953745;28;20067;-76
2022/06/17 04:23:33;;;;;;;3.45;2.80;;;;;;;15.96;61.64;101221.84;4944254;28;20499;-75
2022/06/17 04:26:06;;;;;;;4.10;2.72;;;;;;;15.94;61.98;101222.88;4958412;28;20439;-76
2022/06/17 04:28:44;;;;;;;5.88;2.97;;;;;;;15.95;61.61;101224.59;4958607;28;20097;-76
2022/06/17 04:31:20;;;;;;;5.35;2.70;;;;;;;15.98;61.27;101230.63;4966387;28;20055;-75
2022/06/17 04:34:13;;;;;;;3.67;2.88;;;;;;;15.97;61.41;101225.38;4961985;28;20065;-75
2022/06/17 04:36:46;;;;;;;3.47;2.28;;;;;;;16.00;61.58;101235.91;4967585;28;20043;-75
2022/06/17 04:39:33;;;;;;;6.38;3.08;;;;;;;16.12;61.93;101238.72;4968368;28;20058;-75
2022/06/17 04:42:04;;;;;;;3.97;2.58;;;;;;;16.11;61.58;101215.63;4964383;28;20074;-75
2022/06/17 04:44:33;;;;;;;3.33;2.63;;;;;;;16.30;61.38;101234.16;4961967;28;20564;-74
2022/06/17 04:47:09;;;;;;;3.90;2.80;;;;;;;16.30;60.58;101231.47;4952081;28;20587;-76
2022/06/17 04:49:40;;;;;;;3.50;2.63;;;;;;;16.39;60.43;101240.75;4967137;28;20043;-77
2022/06/17 04:52:20;;;;;;;6.13;3.10;;;;;;;16.40;60.18;101238.00;4946927;28;20381;-76
2022/06/17 04:54:47;;;;;;;6.05;3.00;;;;;;;16.42;60.32;101233.44;4952988;28;20133;-76
2022/06/17 04:57:14;;;;;;;6.05;2.72;;;;;;;16.40;60.89;101213.94;4966219;28;20054;-75
2022/06/17 04:59:47;;;;;;;5.68;2.80;;;;;;;16.61;59.97;101217.19;4963942;28;20141;-75
2022/06/17 05:02:18;;;;;;;4.32;2.60;;;;;;;16.69;59.80;101216.75;4961596;28;20574;-75
2022/06/17 05:04:46;;;;;;;4.63;2.90;;;;;;;16.81;60.12;101210.69;4965704;28;20501;-76
2022/06/17 05:07:15;;;;;;;4.45;2.60;;;;;;;16.83;58.79;101195.41;4954652;28;20078;-75
2022/06/17 05:09:48;;;;;;;4.28;2.80;;;;;;;16.91;58.45;101209.19;4944286;28;20047;-76
2022/06/17 05:12:33;;;;;;;4.35;2.63;;;;;;;16.92;58.97;101213.56;4945338;28;20047;-76
2022/06/17 05:15:10;;;;;;;5.60;2.80;;;;;;;16.89;58.80;101205.72;4940683;28;20072;-77
2022/06/17 05:17:38;;;;;;;4.28;2.50;;;;;;;17.03;58.78;101221.81;4926556;28;20047;-74
2022/06/17 05:20:06;;;;;;;6.15;3.17;;;;;;;16.85;58.66;101198.84;4943138;28;20071;-74
2022/06/17 05:22:36;;;;;;;6.03;2.75;;;;;;;17.02;59.23;101230.78;4939639;28;20166;-74
2022/06/17 05:25:10;;;;;;;4.90;2.55;;;;;;;17.13;59.06;101230.16;4948060;28;20073;-75
2022/06/17 05:27:37;;;;;;;4.30;2.72;;;;;;;17.23;58.50;101231.31;4939997;28;20523;-74
2022/06/17 05:30:04;;;;;;;5.15;2.65;;;;;;;17.31;58.74;101236.19;4954904;28;20050;-75
2022/06/17 05:32:31;;;;;;;4.32;2.83;;;;;;;17.07;58.05;101183.22;4957936;28;20141;-75
2022/06/17 05:34:58;;;;;;;3.20;2.40;;;;;;;17.56;57.95;101236.38;4962682;28;20109;-75
2022/06/17 05:37:27;;;;;;;5.43;2.45;;;;;;;17.64;57.11;101228.75;4959214;28;20518;-74
2022/06/17 05:39:55;;;;;;;5.35;2.70;;;;;;;17.64;56.90;101217.16;4958263;28;20139;-75
2022/06/17 05:42:21;;;;;;;4.80;2.38;;;;;;;17.74;56.29;101231.72;4959495;28;20062;-76
2022/06/17 05:44:48;;;;;;;3.83;2.40;;;;;;;17.81;55.87;101233.91;4954979;28;20176;-75
2022/06/17 05:47:15;;;;;;;4.38;2.15;;;;;;;17.88;55.60;101223.66;4942568;28;20054;-77
2022/06/17 05:49:41;;;;;;;6.25;2.40;;;;;;;18.05;55.40;101231.47;4949554;28;20075;-76
2022/06/17 05:52:10;;;;;;;4.13;2.60;;;;;;;18.16;55.11;101233.44;4949808;28;20102;-76
2022/06/17 05:54:38;;;;;;;4.00;2.63;;;;;;;18.20;54.29;101210.84;4941083;28;20428;-75
2022/06/17 05:57:05;;;;;;;2.97;2.15;;;;;;;18.37;53.56;101228.50;4950959;28;20071;-76
2022/06/17 05:59:31;;;;;;;3.17;2.50;;;;;;;18.47;52.96;101241.19;4944685;28;20473;-75
2022/06/17 06:01:58;;;;;;;4.85;2.40;;;;;;;18.58;53.00;101238.69;4945003;28;20525;-75
2022/06/17 06:04:26;;;;;;;5.80;2.00;;;;;;;18.73;52.82;101235.97;4943327;28;20756;-76
2022/06/17 06:06:53;;;;;;;4.60;2.30;;;;;;;18.82;50.92;101228.13;4948297;28;20083;-77
2022/06/17 06:09:19;;;;;;;3.72;2.65;;;;;;;19.02;50.84;101242.03;4945515;28;20051;-76
2022/06/17 06:11:46;;;;;;;3.92;2.28;;;;;;;19.13;50.04;101232.25;4945138;28;20060;-76
2022/06/17 06:14:13;;;;;;;7.28;2.55;;;;;;;19.36;48.91;101237.84;4941176;28;20051;-76
2022/06/17 06:16:39;;;;;;;5.97;2.50;;;;;;;19.80;49.20;101258.91;4960739;28;20051;-76
2022/06/17 06:19:06;;;;;;;5.20;2.10;;;;;;;20.11;47.40;101241.41;4943614;28;20059;-76
2022/06/17 06:21:33;;;;;;;3.35;2.10;;;;;;;20.73;45.86;101268.19;4940359;28;20991;-75
2022/06/17 06:24:00;;;;;;;4.20;2.50;;;;;;;21.29;44.86;101267.41;4949478;28;20206;-74
2022/06/17 06:26:27;;;;;;;5.35;2.30;;;;;;;21.75;43.48;101257.50;4948811;28;20089;-75
2022/06/17 06:28:53;;;;;;;6.53;2.25;;;;;;;21.95;42.40;101244.16;4947702;28;20052;-75
2022/06/17 06:31:33;;;;;;;3.65;2.13;;;;;;;22.29;42.52;101261.16;4943085;28;20186;-74
2022/06/17 06:34:00;;;;;;;4.90;2.00;;;;;;;22.60;41.81;101261.31;4945274;28;20063;-74
2022/06/17 06:36:27;;;;;;;4.53;2.10;;;;;;;22.56;41.74;101258.00;4946171;28;20580;-76
2022/06/17 06:38:54;;;;;;;4.30;1.85;;;;;;;22.68;41.77;101267.78;4947926;28;20059;-75
2022/06/17 06:41:21;;;;;;;2.20;2.00;;;;;;;22.96;41.45;101279.00;4944095;28;20404;-74
2022/06/17 06:43:48;;;;;;;5.18;2.10;;;;;;;23.02;42.01;101262.25;4947147;28;20051;-74
2022/06/17 06:46:18;;;;;;;2.88;1.90;;;;;;;23.02;41.33;101270.34;4945184;28;20138;-73
2022/06/17 06:48:48;;;;;;;3.45;2.00;;;;;;;23.16;39.88;101253.81;4950704;28;20486;-73
2022/06/17 06:51:14;;;;;;;3.30;2.10;;;;;;;23.48;41.10;101264.53;4955645;28;20126;-75
2022/06/17 06:53:41;;;;;;;6.32;2.17;;;;;;;23.31;39.67;101251.63;4945065;28;20058;-75
2022/06/17 06:56:08;;;;;;;4.30;2.10;;;;;;;23.41;40.26;101253.44;4943303;28;20626;-76
2022/06/17 06:58:34;;;;;;;3.67;1.80;;;;;;;23.59;38.81;101239.31;4929974;28;20105;-75
2022/06/17 07:01:01;;;;;;;6.28;1.88;;;;;;;23.75;39.46;101245.09;4960463;28;20059;-75
2022/06/17 07:03:29;;;;;;;3.60;2.10;;;;;;;23.84;38.49;101263.19;4943735;28;20115;-75
2022/06/17 07:05:59;;;;;;;5.70;1.90;;;;;;;24.00;38.78;101263.53;4946025;28;20055;-75
2022/06/17 07:08:31;;;;;;;4.28;1.95;;;;;;;24.25;38.36;101256.78;4937873;28;20079;-74
2022/06/17 07:10:59;;;;;;;2.55;2.00;;;;;;;24.41;37.81;101258.94;4941732;28;20062;-73
2022/06/17 07:13:28;;;;;;;4.03;1.80;;;;;;;24.49;39.00;101267.25;4938244;28;20068;-73
2022/06/17 07:15:56;;;;;;;4.68;2.03;;;;;;;24.29;38.78;101258.22;4931681;28;20368;-73
2022/06/17 07:18:32;;;;;;;4.80;1.85;;;;;;;24.27;38.86;101240.41;4936322;28;20047;-73
2022/06/17 07:21:07;;;;;;;2.13;1.60;;;;;;;24.82;37.42;101249.72;4952177;28;20043;-74
2022/06/17 07:23:37;;;;;;;4.23;1.90;;;;;;;25.06;37.21;101257.41;4944750;28;20552;-74
2022/06/17 07:26:24;;;;;;;;;;;;;;;25.25;36.05;101257.41;4959452;28;20061;-74
2022/06/17 07:28:52;;;;;;;2.63;2.00;;;;;;;25.31;36.54;101251.41;4965898;28;20024;-75
2022/06/17 07:31:22;;;;;;;2.65;2.10;;;;;;;25.19;36.06;101239.00;4968153;28;20129;-75
2022/06/17 07:33:49;;;;;;;3.35;2.00;;;;;;;25.36;37.75;101265.34;4966119;28;20126;-75
2022/06/17 07:41:52;;;;;;;3.90;1.85;;;;;;;25.93;33.73;101249.06;4951811;28;20058;-74
2022/06/17 07:44:20;;;;;;;2.90;1.88;;;;;;;26.04;34.44;101257.00;4948283;28;20096;-75
2022/06/17 07:46:47;;;;;;;3.80;1.83;;;;;;;25.56;35.11;101192.06;4958984;28;20051;-77
2022/06/17 07:49:14;;;;;;;2.28;1.35;;;;;;;25.62;35.92;101251.19;4953270;28;20408;-76
2022/06/17 07:51:41;;;;;;;2.67;1.50;;;;;;;25.25;36.03;101254.69;4948404;28;20295;-76
2022/06/17 07:54:08;;;;;;;4.60;1.63;;;;;;;25.18;36.23;101245.44;4947455;28;20082;-75
2022/06/17 07:56:34;;;;;;;4.40;1.70;;;;;;;;;;4951266;28;20571;-76
2022/06/17 07:59:01;;;;;;;4.78;1.85;;;;;;;24.94;36.74;101250.44;4945486;28;20058;-76
2022/06/17 08:01:28;;;;;;;2.42;1.75;;;;;;;24.92;35.75;101247.84;4952204;28;20407;-75
2022/06/17 08:03:54;;;;;;;2.97;1.35;;;;;;;24.86;34.67;101236.75;4949635;28;20043;-76
2022/06/17 08:06:21;;;;;;;3.35;1.70;;;;;;;25.31;34.68;101261.38;4946535;28;20497;-75
2022/06/17 08:08:48;;;;;;;3.47;1.70;;;;;;;25.48;33.80;101250.63;4948309;28;20142;-75
2022/06/17 08:11:15;;;;;;;4.88;1.65;;;;;;;25.67;33.60;101238.88;4949188;28;20114;-75
2022/06/17 08:13:42;;;;;;;4.15;1.85;;;;;;;25.97;33.41;101231.47;4949162;28;20070;-76
2022/06/17 08:16:12;;;;;;;3.42;1.67;;;;;;;26.37;31.96;101234.66;4952679;28;20507;-76
2022/06/17 08:18:40;;;;;;;2.03;1.45;;;;;;;26.64;32.02;101231.03;4947326;28;20055;-75
2022/06/17 08:21:09;;;;;;;3.85;1.60;;;;;;;26.71;31.29;101207.66;4943588;28;20504;-75
2022/06/17 08:23:35;;;;;;;1.83;1.52;;;;;;;26.95;31.20;101230.63;4947935;28;21495;-74
2022/06/17 08:26:03;;;;;;;6.68;1.80;;;;;;;26.60;30.90;101207.91;4948846;28;20066;-74
2022/06/17 08:28:30;;;;;;;3.38;1.50;;;;;;;26.71;31.10;101245.72;4944030;28;20055;-73
2022/06/17 08:30:57;;;;;;;3.13;1.60;;;;;;;26.47;32.30;101242.72;4948462;28;20127;-73
2022/06/17 08:33:29;;;;;;;4.68;1.60;;;;;;;26.05;32.87;101228.84;4944989;28;20089;-74
2022/06/17 08:36:15;;;;;;;5.13;1.65;;;;;;;25.88;32.62;101235.94;4946853;28;20109;-73
2022/06/17 08:38:47;;;;;;;2.97;1.70;;;;;;;25.82;32.77;101218.38;4942743;28;20542;-73
2022/06/17 08:41:23;;;;;;;4.07;1.40;;;;;;;25.80;32.60;101204.16;4956773;28;20051;-73
2022/06/17 08:43:52;;;;;;;5.00;1.83;;;;;;;25.88;32.38;101216.94;4947153;28;20157;-73
2022/06/17 08:46:41;;;;;;;2.67;1.70;;;;;;;25.81;32.53;101221.28;4936544;28;20602;-73
2022/06/17 08:49:26;;;;;;;2.55;1.67;;;;;;;25.82;32.60;101215.66;4949892;28;20142;-73
2022/06/17 08:52:11;;;;;;;3.53;1.70;;;;;;;25.96;33.08;101216.19;4941884;28;20051;-74
2022/06/17 08:54:51;;;;;;;4.78;1.77;;;;;;;26.04;32.44;101192.69;4953768;28;20055;-74
2022/06/17 08:57:29;;;;;;;5.07;1.63;;;;;;;26.06;31.79;101212.41;4946339;28;20055;-73
2022/06/17 09:00:20;;;;;;;6.53;1.58;;;;;;;25.70;32.36;101216.88;4960182;28;20057;-73
2022/06/17 09:02:59;;;;;;;3.75;1.50;;;;;;;25.72;32.28;101222.16;4950802;28;20057;-73
2022/06/17 09:05:38;;;;;;;4.45;1.95;;;;;;;25.72;31.48;101187.75;4958599;28;20073;-74
2022/06/17 09:08:22;;;;;;;3.35;1.55;;;;;;;26.02;32.30;101204.72;4952335;28;20811;-73
2022/06/17 09:11:01;;;;;;;4.38;1.63;;;;;;;25.88;32.11;101199.81;4957514;28;20074;-73
2022/06/17 09:13:43;;;;;;;1.35;1.25;;;;;;;25.86;32.54;101218.94;4946435;28;20753;-72
2022/06/17 09:16:34;;;;;;;3.38;1.70;;;;;;;25.91;31.79;101219.34;4946937;28;20149;-73
2022/06/17 09:19:03;;;;;;;3.28;1.55;;;;;;;25.94;31.26;101197.34;4964720;28;20079;-73
2022/06/17 09:21:48;;;;;;;3.38;1.50;;;;;;;26.10;30.97;101213.81;4967051;28;20158;-74
2022/06/17 09:24:45;;;;;;;2.97;1.40;;;;;;;26.01;30.87;101198.44;4963215;28;20522;-73
2022/06/17 09:27:26;;;;;;;3.10;1.50;;;;;;;26.15;31.20;101213.34;4967342;28;20050;-75
2022/06/17 09:30:04;;;;;;;2.38;1.27;;;;;;;26.04;31.30;101209.00;4971167;28;20062;-75
2022/06/17 09:32:41;;;;;;;7.20;1.40;;;;;;;25.95;31.20;101198.22;4965934;28;20150;-73
2022/06/17 09:35:23;;;;;;;2.67;1.42;;;;;;;25.94;30.58;101213.63;4965765;28;21210;-73
2022/06/17 09:38:05;;;;;;;3.20;1.48;;;;;;;25.88;31.28;101226.94;4961706;28;20046;-73
2022/06/17 09:40:40;;;;;;;4.43;1.45;;;;;;;25.71;31.88;101218.59;4948459;28;20129;-74
2022/06/17 09:43:12;;;;;;;3.33;1.30;;;;;;;25.62;31.61;101218.66;4962843;28;20109;-73
2022/06/17 09:45:59;;;;;;;2.40;1.42;;;;;;;25.62;30.65;101224.94;4966739;28;20054;-75
2022/06/17 09:48:34;;;;;;;4.30;1.50;;;;;;;25.28;31.93;101212.88;4970345;28;20409;-74
2022/06/17 09:51:09;;;;;;;5.68;2.00;;;;;;;24.86;32.35;101213.22;4962241;28;20448;-73
2022/06/17 09:54:02;;;;;;;3.60;1.63;;;;;;;24.80;33.18;101227.34;4964330;28;20731;-73
2022/06/17 09:56:35;;;;;;;4.35;1.42;;;;;;;24.67;32.59;101213.22;4959936;28;20109;-74
2022/06/17 09:59:21;;;;;;;4.70;1.85;;;;;;;24.67;32.53;101222.22;4969093;28;20062;-73
2022/06/17 10:01:48;;;;;;;2.28;1.40;;;;;;;24.65;32.89;101221.50;4968329;28;20105;-73
2022/06/17 10:04:16;;;;;;;6.38;1.75;;;;;;;24.62;33.38;101216.38;4964989;28;20050;-75
2022/06/17 10:07:05;;;;;;;1.17;1.08;;;;;;;24.70;32.84;101212.94;4968124;28;20050;-73
2022/06/17 10:10:08;;;;;;;2.88;1.52;;;;;;;25.03;32.75;101220.63;4967450;28;20062;-73
2022/06/17 10:12:53;;;;;;;2.63;1.40;;;;;;;25.32;32.11;101212.44;4964226;28;20078;-73
2022/06/17 10:15:36;;;;;;;2.35;1.30;;;;;;;25.37;32.41;101202.00;4965041;28;20047;-74
2022/06/17 10:18:32;;;;;;;4.28;2.63;;;;;;;25.61;32.09;101204.19;4969945;28;20399;-73
2022/06/17 10:21:21;;;;;;;4.63;1.77;;;;;;;25.71;31.80;101202.31;4944920;28;20090;-73
2022/06/17 10:24:18;;;;;;;4.60;1.60;;;;;;;25.88;30.72;101197.94;4946229;28;20076;-73
2022/06/17 10:27:14;;;;;;;4.18;1.60;;;;;;;26.26;30.43;101196.00;4942971;28;20411;-74
2022/06/17 10:30:20;;;;;;;2.17;1.30;;;;;;;26.40;28.74;101171.91;4957475;28;20133;-74
2022/06/17 10:32:51;;;;;;;2.28;1.30;;;;;;;26.55;29.52;101186.66;4966099;28;20074;-73
2022/06/17 10:35:21;;;;;;;5.45;1.60;;;;;;;26.59;29.43;101189.06;4954541;28;20078;-74
2022/06/17 10:37:48;;;;;;;3.13;1.17;;;;;;;26.62;28.79;101167.84;4970667;28;20665;-74
2022/06/17 10:40:23;;;;;;;4.10;1.95;;;;;;;26.73;29.08;101183.91;4954621;28;20126;-74
2022/06/17 10:42:54;;;;;;;1.88;1.65;;;;;;;26.87;27.80;101177.91;4950572;28;20082;-74
2022/06/17 10:45:23;;;;;;;2.35;1.50;;;;;;;26.90;27.78;101180.31;4950586;28;20074;-74
2022/06/17 10:47:57;;;;;;;4.03;1.30;;;;;;;26.83;28.13;101179.22;4953380;28;20523;-73
2022/06/17 10:50:27;;;;;;;3.40;1.15;;;;;;;26.81;28.31;101169.53;4949527;28;20767;-73
2022/06/17 10:53:15;;;;;;;3.15;1.67;;;;;;;26.75;27.96;101156.59;4947001;28;20063;-73
2022/06/17 10:55:49;;;;;;;3.75;1.40;;;;;;;26.68;27.88;101166.38;4948067;28;20068;-74
2022/06/17 10:58:23;;;;;;;1.98;1.10;;;;;;;26.64;27.45;101167.69;4949639;28;20601;-74
2022/06/17 11:01:01;;;;;;;3.83;1.75;;;;;;;26.78;27.30;101165.25;4951235;28;20047;-74
2022/06/17 11:03:32;;;;;;;4.60;1.80;;;;;;;26.86;27.42;101169.91;4950287;28;20070;-73
2022/06/17 11:06:18;;;;;;;3.03;1.00;;;;;;;26.52;27.86;101145.34;4948721;28;20055;-73
2022/06/17 11:09:02;;;;;;;4.20;1.60;;;;;;;26.49;28.00;101164.66;4948361;28;20074;-73
2022/06/17 11:14:43;;;;;;;2.80;1.45;;;;;;;26.60;28.08;101150.88;4949319;28;20055;-73
2022/06/17 11:17:18;;;;;;;4.03;1.40;;;;;;;26.96;27.59;101164.38;4947805;28;20055;-74
2022/06/17 11:19:50;;;;;;;3.25;1.50;;;;;;;27.05;27.35;101149.88;4949025;28;20122;-73
2022/06/17 11:22:30;;;;;;;4.18;1.75;;;;;;;27.22;26.98;101159.81;4948264;28;20051;-72
2022/06/17 11:25:01;;;;;;;5.30;1.27;;;;;;;27.32;26.98;101163.25;4950683;28;20075;-74
2022/06/17 11:27:35;;;;;;;2.88;1.50;;;;;;;27.32;26.54;101154.25;4944091;28;20060;-73
2022/06/17 11:30:20;;;;;;;1.98;1.55;;;;;;;27.27;26.66;101140.28;4945600;28;20578;-74
2022/06/17 11:32:48;;;;;;;3.13;1.10;;;;;;;27.35;26.77;101156.66;4942861;28;20055;-74
2022/06/17 11:35:26;;;;;;;2.30;1.30;;;;;;;27.46;26.63;101159.94;4947946;28;20090;-73
2022/06/17 11:37:54;;;;;;;4.32;1.50;;;;;;;27.37;26.60;101144.59;4946270;28;20051;-73
2022/06/17 11:40:22;;;;;;;2.67;1.10;;;;;;;27.43;26.00;101134.91;4951468;28;20582;-74
2022/06/17 11:42:57;;;;;;;2.50;1.52;;;;;;;27.49;26.10;101143.28;4950253;28;20055;-75
2022/06/17 11:45:44;;;;;;;3.35;1.33;;;;;;;27.24;26.57;101136.88;4949655;28;20059;-74
2022/06/17 11:48:20;;;;;;;2.65;1.48;;;;;;;27.39;26.57;101142.53;4949079;28;20051;-73
2022/06/17 11:51:04;;;;;;;2.97;1.40;;;;;;;27.48;26.65;101138.00;4948816;28;20047;-74
2022/06/17 11:53:40;;;;;;;3.20;1.27;;;;;;;27.59;26.15;101132.31;4950336;28;20086;-74
2022/06/17 11:56:09;;;;;;;3.40;1.40;;;;;;;27.64;25.58;101107.31;4949258;28;20047;-75
2022/06/17 11:59:07;;;;;;;1.50;1.13;;;;;;;27.89;26.60;101130.84;4944795;28;20062;-74
2022/06/17 12:01:35;;;;;;;2.67;1.20;;;;;;;28.04;25.90;101120.16;4956650;28;20051;-74
2022/06/17 12:04:02;;;;;;;2.88;1.17;;;;;;;28.16;25.35;101097.06;4948220;28;20044;-73
2022/06/17 12:06:31;;;;;;;3.50;1.40;;;;;;;28.12;25.48;101098.41;4946046;28;20083;-73